Time;durP1;ratioP1;P1;durP2;ratioP2;P2;SDS_P1;SDS_P2;PMS_P1;PMS_P2;Temp;Humidity;BMP_temperature;BMP_pressure;BME280_temperature;BME280_humidity;BME280_pressure;Samples;Min_cycle;Max_cycle;Signal;HPM_P1;HPM_P2
2022/07/31 00:00:44;;;;;;;230.25;8.55;;;12.60;99.90;;;11.52;100.00;101355.59;5004599;28;20028;-78
2022/07/31 00:03:11;;;;;;;307.45;8.48;;;12.60;99.90;;;11.54;100.00;101356.38;4991126;28;20524;-78
2022/07/31 00:05:40;;;;;;;274.70;7.38;;;12.60;99.90;;;11.56;100.00;101357.19;4981138;28;20045;-79
2022/07/31 00:08:06;;;;;;;6.25;3.20;;;12.60;99.90;;;11.55;100.00;101358.09;4953808;28;22966;-78
2022/07/31 00:10:32;;;;;;;101.82;5.18;;;12.60;99.90;;;11.59;100.00;101353.56;5023899;28;20048;-79
2022/07/31 00:12:57;;;;;;;;;;;12.60;99.90;;;11.57;100.00;101356.25;4978183;28;20412;-78
2022/07/31 00:15:23;;;;;;;7.10;4.30;;;12.60;99.90;;;11.56;100.00;101358.97;4990843;28;19925;-78
2022/07/31 00:17:56;;;;;;;298.48;9.43;;;12.60;99.90;;;11.49;100.00;101368.91;4998254;28;20033;-79
2022/07/31 00:20:22;;;;;;;189.55;8.55;;;12.50;99.90;;;11.46;100.00;101354.03;4975733;28;20041;-78
2022/07/31 00:22:49;;;;;;;275.90;13.70;;;12.50;99.90;;;11.41;100.00;101360.44;4988722;28;20045;-78
2022/07/31 00:25:16;;;;;;;5.65;4.40;;;12.50;99.90;;;11.43;100.00;101350.69;5018247;28;20038;-78
2022/07/31 00:27:45;;;;;;;10.52;6.70;;;12.50;99.90;;;11.45;100.00;101354.13;4980417;28;20065;-78
2022/07/31 00:30:12;;;;;;;28.17;10.00;;;12.50;99.90;;;11.47;100.00;101350.50;4978061;28;20062;-78
2022/07/31 00:32:38;;;;;;;11.65;7.47;;;12.50;99.90;;;11.52;100.00;101357.38;4986116;28;20029;-78
2022/07/31 00:35:04;;;;;;;12.68;7.07;;;12.60;99.90;;;11.53;100.00;101357.28;4993544;28;20405;-78
2022/07/31 00:37:30;;;;;;;237.30;11.18;;;12.60;99.90;;;11.54;100.00;101353.75;5010408;28;20057;-78
2022/07/31 00:39:56;;;;;;;126.60;11.15;;;12.60;99.90;;;11.57;100.00;101350.13;4976434;28;20505;-77
2022/07/31 00:42:23;;;;;;;;;;;12.60;99.90;;;11.53;100.00;101341.47;5012283;28;20425;-78
2022/07/31 00:47:17;;;;;;;39.13;15.32;;;12.50;99.90;;;11.45;100.00;101338.31;5023066;22;20038;-78
2022/07/31 00:49:44;;;;;;;625.28;30.67;;;12.50;99.90;;;11.44;100.00;101344.50;4980562;28;20041;-78
2022/07/31 00:52:11;;;;;;;377.80;26.48;;;12.50;99.90;;;11.39;100.00;101330.66;5015314;28;20072;-78
2022/07/31 00:54:39;;;;;;;58.78;17.88;;;12.40;99.90;;;11.34;100.00;101324.69;4978339;28;20142;-78
2022/07/31 00:57:07;;;;;;;78.28;17.63;;;12.40;99.90;;;11.28;100.00;101333.72;4982368;28;20055;-79
2022/07/31 00:59:33;;;;;;;103.50;20.95;;;12.40;99.90;;;11.25;100.00;101333.81;4939859;28;20082;-78
2022/07/31 01:01:59;;;;;;;69.32;19.08;;;12.30;99.90;;;11.25;100.00;101329.41;4961879;28;20079;-78
2022/07/31 01:04:25;;;;;;;42.55;18.58;;;12.30;99.90;;;11.25;100.00;101333.81;4973647;28;20469;-79
2022/07/31 01:06:52;;;;;;;38.10;19.05;;;12.30;99.90;;;11.23;100.00;101341.81;5007245;23;20117;-78
2022/07/31 01:09:22;;;;;;;84.90;16.73;;;12.30;99.90;;;11.21;100.00;101341.00;4964399;28;20037;-78
2022/07/31 01:12:05;;;;;;;92.70;15.15;;;12.30;99.90;;;11.18;100.00;101337.63;4968508;28;20026;-78
2022/07/31 01:14:42;;;;;;;22.88;12.93;;;12.30;99.90;;;11.24;100.00;101334.75;4985164;28;20041;-78
2022/07/31 01:17:09;;;;;;;25.45;12.15;;;12.30;99.90;;;11.29;100.00;101338.94;4983253;28;20045;-79
2022/07/31 01:19:45;;;;;;;28.60;15.32;;;12.40;99.90;;;11.28;100.00;101344.25;4997462;28;20108;-79
2022/07/31 01:22:48;;;;;;;;;;;12.30;99.90;;;11.24;100.00;101340.88;4984603;28;20051;-79
2022/07/31 01:26:00;;;;;;;42.70;14.82;;;12.40;99.90;;;11.27;100.00;101340.75;5015470;28;19974;-78
2022/07/31 01:29:05;;;;;;;477.48;28.85;;;12.50;99.90;;;11.38;100.00;101339.47;4962469;28;20059;-78
2022/07/31 01:31:38;;;;;;;646.35;34.58;;;12.50;99.90;;;11.39;100.00;101347.31;4989819;28;20046;-79
2022/07/31 01:34:35;;;;;;;592.15;41.28;;;12.50;99.90;;;11.42;100.00;101336.63;4992608;28;20401;-79
2022/07/31 01:37:32;;;;;;;236.00;22.35;;;12.60;99.90;;;11.43;100.00;101345.41;5006336;28;20046;-78
2022/07/31 01:40:34;;;;;;;294.98;23.73;;;12.50;99.90;;;11.44;100.00;101339.22;4973020;28;20542;-79
2022/07/31 01:43:22;;;;;;;139.05;12.45;;;12.60;99.90;;;11.51;100.00;101343.31;4979434;28;20054;-78
2022/07/31 01:45:55;;;;;;;36.83;13.27;;;12.60;99.90;;;11.50;100.00;101336.34;4971092;23;20125;-79
2022/07/31 01:48:21;;;;;;;141.38;16.27;;;12.60;99.90;;;11.43;100.00;101334.88;4955613;28;20027;-78
2022/07/31 01:50:51;;;;;;;853.75;55.70;;;12.50;99.90;;;11.37;100.00;101335.13;4931451;28;20034;-80
2022/07/31 01:53:21;;;;;;;907.08;46.85;;;12.50;99.90;;;11.39;100.00;101338.56;4957804;28;22189;-78
2022/07/31 01:55:51;;;;;;;769.78;47.50;;;12.60;99.90;;;11.45;100.00;101338.31;4935060;28;20399;-79
2022/07/31 01:58:20;;;;;;;505.75;35.45;;;12.60;99.90;;;11.50;100.00;101338.97;4970643;28;20057;-78
2022/07/31 02:00:48;;;;;;;972.50;48.00;;;12.70;99.90;;;11.60;100.00;101332.41;4971467;28;20117;-79
2022/07/31 02:03:16;;;;;;;880.08;41.88;;;12.70;99.90;;;11.68;100.00;101335.59;4941132;28;20038;-79
2022/07/31 02:05:44;;;;;;;391.58;19.80;;;12.70;99.90;;;11.66;100.00;101331.28;4971530;28;20048;-78
2022/07/31 02:08:13;;;;;;;474.42;25.45;;;12.70;99.90;;;11.66;100.00;101328.63;4996216;28;20054;-78
2022/07/31 02:10:41;;;;;;;102.30;15.95;;;12.70;99.90;;;11.60;100.00;101331.56;4934943;28;20498;-79
2022/07/31 02:13:09;;;;;;;85.28;14.02;;;12.70;99.90;;;11.58;100.00;101330.75;4907756;28;20051;-80
2022/07/31 02:15:36;;;;;;;25.65;12.88;;;12.60;99.90;;;11.52;100.00;101326.56;4969105;28;20038;-78
2022/07/31 02:18:03;;;;;;;27.90;13.43;;;12.50;99.90;;;11.40;100.00;101324.44;4943903;28;20039;-79
2022/07/31 02:20:35;;;;;;;47.38;14.90;;;12.50;99.90;;;11.38;100.00;101324.53;4921589;28;20038;-79
2022/07/31 02:23:01;;;;;;;796.38;42.95;;;12.50;99.90;;;11.42;100.00;101325.22;4970327;28;20034;-80
2022/07/31 02:25:28;;;;;;;550.25;29.75;;;12.50;99.90;;;11.47;100.00;101328.56;5004224;28;20030;-80
2022/07/31 02:27:58;;;;;;;854.95;45.92;;;12.60;99.90;;;11.63;100.00;101328.78;4976941;28;20039;-79
2022/07/31 02:30:31;;;;;;;1263.97;56.67;;;12.70;99.90;;;11.74;100.00;101326.53;4955831;28;20039;-78
2022/07/31 02:32:57;;;;;;;1384.30;59.38;;;12.80;99.90;;;11.81;100.00;101332.41;4948435;28;20044;-79
2022/07/31 02:35:24;;;;;;;1109.05;44.95;;;12.90;99.90;;;11.87;100.00;101332.16;4967819;28;20100;-79
2022/07/31 02:37:55;;;;;;;620.13;35.65;;;13.00;99.90;;;11.95;100.00;101326.59;4979454;28;20116;-81
2022/07/31 02:40:23;;;;;;;624.45;39.03;;;13.00;99.90;;;12.00;100.00;101324.63;4944713;28;20509;-80
2022/07/31 02:42:50;;;;;;;588.15;31.70;;;13.00;99.90;;;12.04;100.00;101326.19;4969300;28;20034;-79
2022/07/31 02:45:24;;;;;;;178.65;20.67;;;13.10;99.90;;;12.08;100.00;101330.44;4955639;28;20066;-79
2022/07/31 02:47:50;;;;;;;636.78;42.33;;;13.10;99.90;;;12.11;100.00;101327.66;4970804;28;20623;-82
2022/07/31 02:50:17;;;;;;;559.70;28.50;;;13.10;99.90;;;12.13;100.00;101322.31;4958664;28;20465;-79
2022/07/31 02:52:44;;;;;;;1033.63;46.42;;;13.10;99.90;;;12.13;100.00;101322.31;4961860;28;20040;-79
2022/07/31 02:55:13;;;;;;;708.70;37.33;;;13.10;99.90;;;12.02;100.00;101317.50;4976795;28;20490;-79
2022/07/31 02:57:39;;;;;;;106.88;16.30;;;12.90;99.90;;;11.77;100.00;101320.28;4926892;28;20111;-80
2022/07/31 03:00:22;;;;;;;579.67;27.45;;;12.80;99.90;;;11.55;100.00;101322.94;4939398;28;20039;-79
2022/07/31 03:02:51;;;;;;;606.15;27.77;;;12.60;99.90;;;11.34;100.00;101316.75;4968187;28;20038;-79
2022/07/31 03:05:17;;;;;;;533.50;25.92;;;12.40;99.90;;;11.16;100.00;101316.59;4969927;28;20526;-79
2022/07/31 03:07:46;;;;;;;150.88;14.25;;;12.20;99.90;;;11.08;100.00;101321.31;4963094;28;20046;-80
2022/07/31 03:10:12;;;;;;;258.60;17.35;;;12.20;99.90;;;11.06;100.00;101325.78;4952036;28;21452;-79
2022/07/31 03:12:48;;;;;;;752.42;32.05;;;12.20;99.90;;;11.04;100.00;101319.72;4946608;28;20055;-79
2022/07/31 03:15:19;;;;;;;384.60;21.13;;;12.00;99.90;;;10.91;100.00;101315.81;4966267;28;20392;-80
2022/07/31 03:17:48;;;;;;;347.33;13.52;;;12.00;99.90;;;10.86;100.00;101313.38;4964809;28;20121;-80
2022/07/31 03:20:15;;;;;;;344.20;15.20;;;12.00;99.90;;;10.85;100.00;101314.31;4954522;28;20383;-80
2022/07/31 03:22:44;;;;;;;303.35;15.90;;;11.90;99.90;;;10.82;100.00;101325.81;4934311;28;21150;-79
2022/07/31 03:25:10;;;;;;;213.57;12.10;;;11.90;99.90;;;10.78;100.00;101316.31;4960375;28;20056;-79
2022/07/31 03:27:36;;;;;;;34.75;7.88;;;11.90;99.90;;;10.79;100.00;101310.13;4957809;28;20037;-79
2022/07/31 03:30:04;;;;;;;51.97;8.65;;;11.90;99.90;;;10.85;100.00;101307.25;4959375;28;20065;-80
2022/07/31 03:32:37;;;;;;;15.18;8.77;;;11.90;99.90;;;10.95;100.00;101309.53;4950332;28;20030;-79
2022/07/31 03:35:03;;;;;;;12.45;8.07;;;12.00;99.90;;;11.06;100.00;101317.88;4952912;28;20268;-79
2022/07/31 03:37:29;;;;;;;554.80;17.23;;;12.10;99.90;;;11.14;100.00;101315.78;4957327;28;20030;-79
2022/07/31 03:39:55;;;;;;;333.23;10.50;;;12.10;99.90;;;11.19;100.00;101318.25;4987866;28;20046;-79
2022/07/31 03:42:24;;;;;;;;;;;12.20;99.90;;;11.21;100.00;101313.75;4965661;28;20059;-79
2022/07/31 03:44:50;;;;;;;49.25;6.45;;;;;;;11.28;100.00;101310.84;4997626;28;19932;-81
2022/07/31 03:47:16;;;;;;;36.75;7.15;;;12.30;99.90;;;11.38;100.00;101308.69;4959324;28;20422;-79
2022/07/31 03:49:42;;;;;;;357.77;17.92;;;12.40;99.90;;;11.46;100.00;101309.22;4965787;28;20330;-80
2022/07/31 03:52:08;;;;;;;73.30;12.57;;;12.50;99.90;;;11.56;100.00;101316.78;4961553;28;20679;-81
2022/07/31 03:54:34;;;;;;;113.55;15.27;;;12.60;99.90;;;11.67;100.00;101325.94;4984607;28;20173;-81
2022/07/31 03:57:04;;;;;;;31.83;12.00;;;12.60;99.90;;;11.61;100.00;101317.44;4970484;28;20411;-79
2022/07/31 03:59:32;;;;;;;28.95;13.57;;;12.60;99.90;;;11.56;100.00;101316.78;4916704;28;20131;-81
2022/07/31 04:02:00;;;;;;;259.83;18.83;;;12.50;99.90;;;11.52;100.00;101320.47;4972983;28;20037;-79
2022/07/31 04:04:27;;;;;;;68.97;11.82;;;12.50;99.90;;;11.52;100.00;101323.94;4940439;28;20546;-82
2022/07/31 04:06:57;;;;;;;342.23;18.75;;;12.50;99.90;;;11.62;100.00;101311.22;4963889;28;20034;-80
2022/07/31 04:09:23;;;;;;;324.63;17.25;;;12.60;99.90;;;11.75;100.00;101322.13;4950814;28;20038;-79
2022/07/31 04:11:49;;;;;;;83.03;11.23;;;12.80;99.90;;;12.08;100.00;101315.44;4957541;28;20053;-79
2022/07/31 04:14:15;;;;;;;187.75;13.82;;;13.70;99.90;;;13.29;100.00;101332.00;4961553;28;20045;-80
2022/07/31 04:16:41;;;;;;;295.65;15.98;;;14.70;99.90;;;14.46;100.00;101326.06;4969606;28;20046;-80
2022/07/31 04:19:07;;;;;;;323.75;17.48;;;15.70;99.90;;;15.64;99.70;101330.13;4937737;28;20039;-81
2022/07/31 04:21:37;;;;;;;161.32;11.07;;;16.50;99.90;;;16.61;90.38;101340.28;4966699;28;20030;-80
2022/07/31 04:24:04;;;;;;;226.98;13.80;;;17.40;99.90;;;17.53;83.79;101333.53;4947062;28;20384;-81
2022/07/31 04:26:30;;;;;;;276.55;11.65;;;18.20;99.90;;;18.47;79.75;101336.06;4953903;28;20056;-80
2022/07/31 04:28:56;;;;;;;388.05;12.75;;;19.00;99.90;;;19.56;76.50;101340.66;4982558;28;20494;-80
2022/07/31 04:31:21;;;;;;;30.58;7.70;;;20.00;99.90;;;20.74;71.76;101344.13;4995640;28;20067;-79
2022/07/31 04:33:48;;;;;;;;;;;20.10;99.90;;;22.37;67.63;101342.19;5006277;28;20038;-78
2022/07/31 04:36:17;;;;;;;9.13;5.35;;;22.20;99.90;;;23.64;63.20;101347.94;4964062;28;19925;-81
2022/07/31 04:38:43;;;;;;;7.57;6.22;;;23.30;99.90;;;24.77;59.81;101347.16;4923199;28;20120;-80
2022/07/31 04:41:09;;;;;;;7.32;5.30;;;24.30;99.90;;;25.91;56.47;101349.38;4971970;28;20035;-78
2022/07/31 04:43:34;;;;;;;;;;;24.40;99.90;;;27.26;54.71;101359.59;4956765;28;20034;-80
2022/07/31 04:46:00;;;;;;;6.47;3.80;;;26.20;99.90;;;28.16;51.57;101361.50;4956783;28;19917;-78
2022/07/31 04:48:26;;;;;;;;;;;26.80;99.90;;;29.37;50.61;101365.81;4967226;28;20474;-80
2022/07/31 04:50:51;;;;;;;6.35;3.13;;;27.70;99.40;;;29.94;47.73;101364.56;4994088;28;20275;-80
2022/07/31 04:53:19;;;;;;;;;;;27.80;99.40;;;30.90;47.08;101367.47;4945601;28;20057;-78
2022/07/31 04:56:32;;;;;;;5.53;4.00;;;29.00;97.80;;;31.24;44.81;101366.81;4971564;28;19925;-77
2022/07/31 04:58:33;;;;;;;5.93;3.60;;;29.50;96.80;;;31.82;43.64;101378.53;4996988;28;20057;-78
2022/07/31 05:01:00;;;;;;;5.45;3.05;;;30.00;96.50;;;32.38;43.37;101376.91;4950527;28;20113;-77
2022/07/31 05:03:26;;;;;;;6.25;3.00;;;30.40;96.00;;;32.90;42.24;101370.91;4969221;28;20037;-79
2022/07/31 05:05:55;;;;;;;6.47;2.63;;;30.90;95.40;;;33.50;41.29;101381.19;4939054;28;20050;-79
2022/07/31 05:08:21;;;;;;;4.05;1.70;;;31.30;93.90;;;33.94;40.50;101382.50;4963652;28;20030;-77
2022/07/31 05:13:32;;;;;;;5.93;2.65;;;32.20;93.80;;;35.26;38.68;101390.59;4960545;28;20112;-77
2022/07/31 05:15:58;;;;;;;3.55;2.20;;;32.50;93.40;;;34.79;39.05;101395.41;4987788;28;20096;-82
2022/07/31 05:18:26;;;;;;;5.82;2.15;;;32.80;92.80;;;35.69;38.09;101401.72;4953250;28;20037;-78
2022/07/31 05:20:52;;;;;;;3.15;1.70;;;33.20;92.50;;;36.34;37.41;101403.28;4976242;28;20499;-78
2022/07/31 05:23:18;;;;;;;2.85;1.48;;;33.50;92.40;;;36.75;37.02;101402.66;4962552;28;20041;-77
2022/07/31 05:25:44;;;;;;;4.03;1.40;;;33.80;91.20;;;37.19;36.08;101410.78;4983627;28;21353;-78
2022/07/31 05:28:10;;;;;;;4.00;1.20;;;34.20;90.70;;;37.48;35.74;101416.50;4979102;28;20109;-77
2022/07/31 05:30:35;;;;;;;5.40;1.52;;;34.30;91.10;;;37.45;35.33;101404.06;4979331;28;20149;-77
2022/07/31 05:33:09;;;;;;;6.13;1.35;;;34.50;90.90;;;37.54;35.54;101421.06;4995136;28;20609;-78
2022/07/31 05:35:35;;;;;;;2.00;1.20;;;34.80;90.60;;;38.13;34.74;101423.97;4962214;28;20034;-77
2022/07/31 05:38:00;;;;;;;2.42;1.25;;;35.20;90.80;;;38.74;34.07;101428.13;4993363;28;20050;-77
2022/07/31 05:40:26;;;;;;;4.22;1.17;;;35.60;90.10;;;39.09;33.93;101429.13;4982750;28;20531;-78
2022/07/31 05:42:52;;;;;;;5.25;0.90;;;35.90;89.10;;;39.26;33.59;101430.00;5005995;28;20394;-77
2022/07/31 05:45:18;;;;;;;4.60;0.90;;;36.10;89.50;;;39.70;33.13;101443.22;4960371;28;20081;-78
2022/07/31 05:47:46;;;;;;;5.88;1.23;;;36.40;88.40;;;39.91;32.89;101434.25;4984966;28;20044;-78
2022/07/31 05:50:13;;;;;;;5.70;1.17;;;36.30;85.60;;;39.42;32.82;101433.94;4984835;28;20058;-79
2022/07/31 05:52:39;;;;;;;9.95;1.10;;;36.30;85.90;;;39.34;33.25;101432.38;4988126;28;20486;-77
2022/07/31 05:55:05;;;;;;;3.33;0.82;;;36.20;84.90;;;39.02;33.47;101439.47;4968956;28;20030;-78
2022/07/31 05:57:31;;;;;;;3.83;0.98;;;36.00;85.80;;;38.77;33.70;101449.66;4949288;28;20042;-78
2022/07/31 05:59:56;;;;;;;5.10;1.05;;;35.70;87.00;;;38.39;34.18;101432.81;4976179;28;20045;-77
2022/07/31 06:02:22;;;;;;;7.72;1.10;;;35.80;85.90;;;38.61;33.74;101438.56;4967834;28;20092;-78
2022/07/31 06:04:51;;;;;;;5.72;1.23;;;;;;;38.68;33.59;101439.25;4982777;28;20069;-78
2022/07/31 06:07:16;;;;;;;4.50;0.90;;;35.70;84.90;;;38.40;33.59;101435.31;4978995;28;20045;-78
2022/07/31 06:09:42;;;;;;;4.35;0.90;;;35.90;86.70;;;38.81;33.63;101440.91;4976022;28;20061;-78
2022/07/31 06:12:08;;;;;;;4.53;0.90;;;36.20;84.10;;;39.16;32.78;101440.84;4996366;28;20042;-78
2022/07/31 06:14:34;;;;;;;7.45;1.15;;;36.50;83.60;;;39.26;32.45;101435.53;4978685;28;20026;-77
2022/07/31 06:17:04;;;;;;;6.78;1.10;;;36.70;81.50;;;39.50;31.67;101435.44;4978723;28;20566;-79
2022/07/31 06:19:32;;;;;;;3.80;1.00;;;36.90;81.80;;;39.52;31.28;101438.78;4948546;28;20041;-79
2022/07/31 06:21:58;;;;;;;3.28;0.77;;;37.00;80.50;;;39.29;31.71;101428.69;4939533;28;20033;-79
2022/07/31 06:24:24;;;;;;;3.83;1.25;;;37.30;80.40;;;39.68;31.33;101437.13;4919998;28;20045;-78
2022/07/31 06:26:55;;;;;;;3.03;0.90;;;37.70;80.40;;;40.37;30.86;101447.97;4970673;28;20045;-78
2022/07/31 06:29:23;;;;;;;4.53;1.08;;;37.80;79.60;;;39.80;31.28;101440.66;4966995;28;20118;-78
2022/07/31 06:31:49;;;;;;;3.75;0.90;;;38.00;78.10;;;39.97;30.94;101441.53;4946575;28;20050;-77
2022/07/31 06:34:15;;;;;;;2.33;0.82;;;38.00;76.00;;;39.62;31.24;101444.50;4950547;28;20126;-78
2022/07/31 06:36:40;;;;;;;4.10;1.00;;;37.90;74.30;;;39.18;31.04;101438.66;4972362;28;20403;-78
2022/07/31 06:39:07;;;;;;;5.07;0.80;;;38.30;77.80;;;40.31;30.04;101449.81;4979407;28;20400;-77
2022/07/31 06:41:47;;;;;;;2.70;1.00;;;38.80;73.20;;;40.42;29.20;101453.56;4973072;28;20035;-79
2022/07/31 06:44:18;;;;;;;2.60;0.82;;;39.00;72.60;;;40.70;28.78;101460.00;4997540;28;20038;-77
2022/07/31 06:46:45;;;;;;;5.40;0.98;;;39.20;75.20;;;41.07;29.09;101454.69;4941610;28;20035;-78
2022/07/31 06:49:12;;;;;;;2.25;0.77;;;39.70;73.70;;;41.58;28.04;101463.59;4985659;28;20030;-78
2022/07/31 06:51:38;;;;;;;4.53;0.90;;;40.10;72.50;;;41.83;28.48;101459.38;4952675;28;20081;-77
2022/07/31 06:54:09;;;;;;;6.05;1.00;;;40.00;70.30;;;40.95;28.92;101457.63;4960071;28;20590;-77
2022/07/31 06:56:36;;;;;;;2.72;1.00;;;40.20;71.10;;;41.22;28.83;101456.84;4978000;28;20512;-78
2022/07/31 06:59:04;;;;;;;3.58;0.85;;;40.10;68.80;;;40.99;28.16;101464.25;4978068;28;20067;-78
2022/07/31 07:01:31;;;;;;;1.38;0.70;;;39.80;65.20;;;40.25;27.95;101448.03;4976728;28;20112;-78
2022/07/31 07:03:59;;;;;;;1.92;0.80;;;39.70;67.60;;;40.33;27.96;101453.16;4958577;28;20105;-78
2022/07/31 07:06:25;;;;;;;3.95;0.80;;;39.50;66.90;;;39.28;28.96;101435.28;4975433;28;20035;-79
2022/07/31 07:08:52;;;;;;;1.73;0.85;;;39.10;67.70;;;39.17;29.24;101435.06;4972410;28;20060;-77
2022/07/31 07:11:19;;;;;;;3.55;1.00;;;38.80;66.80;;;39.20;28.68;101431.00;4965782;28;20045;-77
2022/07/31 07:13:44;;;;;;;2.95;0.88;;;38.50;65.50;;;38.77;28.58;101444.16;4968009;28;20110;-77
2022/07/31 07:16:11;;;;;;;1.90;0.88;;;38.20;63.80;;;37.96;28.37;101445.78;4974069;28;20092;-78
2022/07/31 07:18:41;;;;;;;1.10;0.70;;;38.20;63.90;;;38.29;27.86;101434.22;4968759;28;20038;-78
2022/07/31 07:21:07;;;;;;;1.23;0.70;;;38.30;63.20;;;38.50;28.12;101440.25;4975131;28;20034;-78
2022/07/31 07:23:33;;;;;;;1.38;0.70;;;38.30;65.00;;;38.20;29.01;101424.69;4977354;28;20091;-78
2022/07/31 07:25:59;;;;;;;4.03;0.90;;;37.90;66.00;;;36.93;30.55;101412.78;4933222;28;20038;-77
2022/07/31 07:28:24;;;;;;;1.17;0.70;;;37.60;68.20;;;37.18;30.89;101402.78;4968192;28;20136;-78
2022/07/31 07:30:50;;;;;;;6.22;1.10;;;38.00;67.80;;;38.34;29.40;101411.53;4964021;28;20054;-78
2022/07/31 07:33:16;;;;;;;2.03;0.98;;;38.50;66.50;;;38.94;28.82;101402.97;4977890;28;20045;-78
2022/07/31 07:35:42;;;;;;;7.47;0.93;;;38.90;67.10;;;39.35;28.20;101405.66;4976784;28;20117;-78
2022/07/31 07:38:10;;;;;;;29.40;1.40;;;39.10;64.80;;;39.43;28.12;101404.47;4967299;28;20073;-78
2022/07/31 07:40:37;;;;;;;16.70;1.35;;;39.30;65.90;;;39.52;27.77;101401.03;4951945;28;20213;-77
2022/07/31 07:43:03;;;;;;;2.65;0.80;;;39.30;64.00;;;39.30;27.85;101402.81;4983041;28;20034;-78
2022/07/31 07:45:28;;;;;;;1.65;0.63;;;39.00;62.60;;;38.66;27.99;101405.66;4929897;28;20125;-78
2022/07/31 07:47:54;;;;;;;1.98;0.80;;;38.20;63.40;;;37.43;29.59;101394.38;4956815;28;20037;-78
2022/07/31 07:50:21;;;;;;;2.25;0.90;;;37.90;61.90;;;36.99;29.10;101394.53;4974656;28;20030;-79
2022/07/31 07:52:50;;;;;;;1.40;0.70;;;37.50;62.20;;;36.99;28.67;101382.75;4947304;28;20100;-78
2022/07/31 07:55:16;;;;;;;2.17;0.90;;;37.30;61.80;;;36.93;28.39;101381.75;4958430;28;20053;-77
2022/07/31 07:57:44;;;;;;;1.52;0.80;;;37.00;62.10;;;36.36;28.01;101384.72;4956474;28;20130;-78
2022/07/31 08:00:11;;;;;;;3.25;0.90;;;36.10;58.40;;;34.49;28.84;101374.03;4978190;28;20506;-77
2022/07/31 08:02:39;;;;;;;8.30;0.90;;;35.10;57.10;;;33.28;28.66;101383.22;4966375;28;20100;-77
2022/07/31 08:05:06;;;;;;;1.70;0.70;;;34.20;56.30;;;33.26;27.15;101383.44;4999668;28;20585;-79
2022/07/31 08:07:35;;;;;;;2.28;0.73;;;33.90;59.50;;;33.76;28.32;101369.47;4959551;28;20045;-78
2022/07/31 08:10:03;;;;;;;3.22;0.93;;;34.50;62.20;;;34.96;27.85;101362.94;4934081;28;20044;-78
2022/07/31 08:12:36;;;;;;;4.03;0.90;;;35.00;59.30;;;35.27;27.10;101371.22;4968401;28;20030;-78
2022/07/31 08:15:04;;;;;;;5.53;1.00;;;34.90;60.10;;;34.41;28.41;101366.06;4964712;28;20042;-77
2022/07/31 08:17:30;;;;;;;3.40;0.88;;;34.60;61.30;;;33.69;30.15;101363.16;4997305;28;20042;-78
2022/07/31 08:19:56;;;;;;;5.20;1.33;;;34.50;62.30;;;34.21;29.26;101361.50;4978296;28;20490;-78
2022/07/31 08:22:24;;;;;;;3.92;1.02;;;34.40;61.50;;;33.91;29.47;101350.97;4943004;28;20030;-78
2022/07/31 08:24:50;;;;;;;3.58;0.82;;;34.60;62.80;;;34.53;29.82;101346.03;4957717;28;20145;-78
2022/07/31 08:27:26;;;;;;;21.45;1.70;;;34.40;64.60;;;34.52;29.14;101335.34;4964722;28;20062;-78
2022/07/31 08:30:00;;;;;;;2.10;0.93;;;34.50;65.60;;;34.75;29.95;101340.31;4957447;28;20603;-78
2022/07/31 08:32:26;;;;;;;6.00;1.10;;;34.50;64.90;;;34.40;30.54;101334.31;4966082;28;20577;-78
2022/07/31 08:34:54;;;;;;;3.78;1.00;;;33.90;64.10;;;32.94;31.33;101322.25;4973559;28;20095;-77
2022/07/31 08:37:22;;;;;;;2.63;1.00;;;33.30;64.40;;;32.32;31.98;101324.03;4967404;28;20034;-77
2022/07/31 08:39:49;;;;;;;5.20;1.33;;;33.00;65.40;;;32.61;31.77;101322.09;4936947;28;20038;-78
2022/07/31 08:42:17;;;;;;;9.25;1.35;;;32.80;66.40;;;32.64;31.87;101314.38;4942783;28;20047;-78
2022/07/31 08:44:45;;;;;;;6.45;1.25;;;32.70;66.40;;;32.73;31.88;101315.03;4962133;28;20039;-77
2022/07/31 08:47:14;;;;;;;11.32;1.13;;;32.70;67.10;;;32.60;31.85;101309.53;4966138;28;20046;-78
2022/07/31 08:49:46;;;;;;;7.38;1.00;;;32.70;67.30;;;32.34;31.67;101300.16;4949486;28;20499;-79
2022/07/31 08:52:23;;;;;;;6.07;1.25;;;32.40;66.60;;;31.88;32.30;101292.50;4986570;28;20122;-80
2022/07/31 08:54:51;;;;;;;2.67;1.20;;;31.80;65.40;;;30.61;33.31;101284.91;4977347;28;20026;-78
2022/07/31 08:57:22;;;;;;;10.38;1.25;;;31.40;66.70;;;30.48;33.66;101279.31;4959112;28;20038;-78
2022/07/31 08:59:51;;;;;;;5.10;1.23;;;30.80;66.10;;;29.62;34.39;101279.66;4960905;28;20041;-79
2022/07/31 09:02:17;;;;;;;6.10;1.05;;;30.30;68.60;;;29.25;35.70;101273.19;4989414;28;20117;-78
2022/07/31 09:04:43;;;;;;;6.05;1.00;;;29.90;68.20;;;28.80;35.87;101272.09;4973136;28;20072;-78
2022/07/31 09:07:14;;;;;;;4.88;1.00;;;29.60;70.20;;;28.88;36.03;101268.47;4956194;28;20418;-78
2022/07/31 09:09:46;;;;;;;8.95;1.10;;;29.40;70.90;;;28.59;36.67;101259.16;4963548;28;20117;-79
2022/07/31 09:12:12;;;;;;;8.07;1.00;;;29.40;71.40;;;28.83;36.14;101256.34;4981661;28;20062;-78
2022/07/31 09:14:46;;;;;;;9.50;1.40;;;29.10;69.40;;;28.11;36.39;101261.84;4967825;28;20030;-79
2022/07/31 09:17:16;;;;;;;3.28;1.15;;;28.80;70.80;;;27.93;37.56;101243.13;4956285;28;20535;-77
2022/07/31 09:19:47;;;;;;;5.88;1.27;;;28.80;70.00;;;27.70;36.77;101242.97;4991445;28;20030;-78
2022/07/31 09:22:28;;;;;;;8.15;1.48;;;28.60;70.80;;;27.82;36.93;101240.75;4967494;28;20042;-78
2022/07/31 09:25:06;;;;;;;2.90;1.00;;;28.60;72.00;;;28.36;36.98;101243.66;4961341;28;20061;-77
2022/07/31 09:27:33;;;;;;;5.55;1.20;;;28.90;74.70;;;28.80;37.36;101240.41;4961439;28;20042;-77
2022/07/31 09:30:06;;;;;;;5.15;1.20;;;29.20;73.90;;;29.04;35.68;101246.69;4983718;28;20031;-78
2022/07/31 09:32:32;;;;;;;2.40;0.77;;;29.20;73.00;;;29.11;34.82;101250.41;4981910;28;20026;-77
2022/07/31 09:35:14;;;;;;;6.50;1.27;;;29.40;71.30;;;29.27;35.83;101235.06;5000565;28;20038;-78
2022/07/31 09:37:45;;;;;;;3.22;1.10;;;29.30;70.10;;;28.67;36.16;101237.44;4966961;28;20061;-77
2022/07/31 09:40:14;;;;;;;9.13;1.10;;;29.10;72.20;;;28.34;37.20;101234.88;4963259;28;20038;-77
2022/07/31 09:42:49;;;;;;;4.10;0.88;;;28.70;69.80;;;27.66;37.20;101228.09;4964499;28;20049;-78
2022/07/31 09:45:24;;;;;;;3.03;1.00;;;28.90;72.90;;;28.33;36.89;101229.63;4972548;28;20056;-79
2022/07/31 09:48:11;;;;;;;6.10;0.90;;;29.10;71.90;;;28.88;36.88;101225.09;4993855;28;20035;-78
2022/07/31 09:50:58;;;;;;;4.55;1.15;;;29.10;69.70;;;28.27;36.62;101224.91;4978218;28;20084;-78
2022/07/31 09:53:42;;;;;;;3.28;1.00;;;29.00;70.70;;;28.35;37.13;101217.59;4979611;28;20038;-78
2022/07/31 09:56:14;;;;;;;3.72;1.17;;;29.10;70.80;;;28.59;36.66;101226.66;4991307;28;20069;-77
2022/07/31 09:58:41;;;;;;;3.05;1.00;;;29.10;71.10;;;28.50;37.18;101219.59;5002941;28;20037;-78
2022/07/31 10:01:12;;;;;;;4.72;1.10;;;29.20;72.40;;;28.71;37.02;101218.97;4982123;28;20097;-78
2022/07/31 10:03:49;;;;;;;4.28;1.05;;;29.10;71.40;;;28.31;36.72;101221.66;4981202;28;20038;-77
2022/07/31 10:06:16;;;;;;;2.72;0.98;;;28.90;71.40;;;27.88;37.28;101213.03;4959073;28;20431;-78
2022/07/31 10:08:47;;;;;;;5.00;1.25;;;29.00;72.10;;;28.38;37.39;101219.09;4975362;28;20463;-78
2022/07/31 10:11:18;;;;;;;8.13;1.15;;;29.10;73.10;;;28.67;37.49;101207.66;4951488;28;20568;-77
2022/07/31 10:13:50;;;;;;;9.80;1.20;;;29.10;71.90;;;28.56;36.59;101208.88;4981310;28;20186;-78
2022/07/31 10:16:21;;;;;;;2.60;0.90;;;29.10;70.50;;;28.33;36.85;101207.97;4984490;28;20113;-80
2022/07/31 10:19:00;;;;;;;3.05;1.15;;;29.00;71.40;;;27.97;36.51;101206.59;4970094;28;20038;-79